Time;durP1;ratioP1;P1;durP2;ratioP2;P2;SDS_P1;SDS_P2;PMS_P1;PMS_P2;Temp;Humidity;BMP_temperature;BMP_pressure;BME280_temperature;BME280_humidity;BME280_pressure;Samples;Min_cycle;Max_cycle;Signal;HPM_P1;HPM_P2
2022/10/17 00:01:02;;;;;;;;;;;16.40;99.90;;;;;;5074515;28;20349;-80
2022/10/17 00:03:28;;;;;;;;;;;16.40;99.90;;;;;;5074502;28;19935;-79
2022/10/17 00:05:53;;;;;;;;;;;16.30;99.90;;;;;;5074674;28;20372;-77
2022/10/17 00:08:19;;;;;;;;;;;16.30;99.90;;;;;;5074590;28;19915;-79
2022/10/17 00:10:45;;;;;;;;;;;16.30;99.90;;;;;;5073178;28;19912;-78
2022/10/17 00:13:11;;;;;;;;;;;16.30;99.90;;;;;;5074364;28;19914;-79
2022/10/17 00:15:36;;;;;;;;;;;16.40;99.90;;;;;;5074809;28;20003;-79
2022/10/17 00:18:03;;;;;;;;;;;16.50;99.90;;;;;;5074412;28;19943;-77
2022/10/17 00:20:29;;;;;;;;;;;16.50;99.90;;;;;;5074265;28;19954;-79
2022/10/17 00:22:55;;;;;;;;;;;16.50;99.90;;;;;;5074228;28;19917;-77
2022/10/17 00:25:21;;;;;;;;;;;16.50;99.90;;;;;;5074375;28;20386;-78
2022/10/17 00:27:46;;;;;;;;;;;16.50;99.90;;;;;;5074222;28;19954;-78
2022/10/17 00:30:13;;;;;;;;;;;16.50;99.90;;;;;;5074152;28;20138;-79
2022/10/17 00:32:39;;;;;;;;;;;16.60;99.90;;;;;;5074231;28;19915;-78
2022/10/17 00:35:05;;;;;;;;;;;16.60;99.90;;;;;;5074284;28;19912;-79
2022/10/17 00:37:31;;;;;;;;;;;16.60;99.90;;;;;;5072960;28;20495;-77
2022/10/17 00:39:56;;;;;;;;;;;16.70;99.90;;;;;;5074145;28;19918;-79
2022/10/17 00:42:23;;;;;;;;;;;16.70;99.90;;;;;;5072849;28;20345;-76
2022/10/17 00:44:49;;;;;;;;;;;16.70;99.90;;;;;;5074115;28;20269;-78
2022/10/17 00:47:17;;;;;;;;;;;16.60;99.90;;;;;;5074564;28;19934;-78
2022/10/17 00:49:43;;;;;;;;;;;16.60;99.90;;;;;;5073640;28;20007;-77
2022/10/17 00:52:10;;;;;;;;;;;16.60;99.90;;;;;;5072663;28;19956;-77
2022/10/17 00:54:38;;;;;;;;;;;16.60;99.90;;;;;;5073990;28;19908;-79
2022/10/17 00:57:04;;;;;;;;;;;16.70;99.90;;;;;;5074294;28;19923;-79
2022/10/17 00:59:31;;;;;;;;;;;16.70;99.90;;;;;;5078014;28;19931;-77
2022/10/17 01:02:02;;;;;;;;;;;16.70;99.90;;;;;;5078033;28;19909;-78
2022/10/17 01:04:27;;;;;;;;;;;16.70;99.90;;;;;;5077813;28;19912;-77
2022/10/17 01:06:53;;;;;;;;;;;16.70;99.90;;;;;;5077815;28;19954;-77
2022/10/17 01:09:19;;;;;;;;;;;16.80;99.90;;;;;;5077869;28;19916;-79
2022/10/17 01:11:49;;;;;;;;;;;16.80;99.90;;;;;;5078096;28;19946;-79
2022/10/17 01:14:23;;;;;;;;;;;16.70;99.90;;;;;;5078085;28;19916;-79
2022/10/17 01:16:57;;;;;;;;;;;16.70;99.90;;;;;;5077886;28;19909;-77
2022/10/17 01:19:25;;;;;;;;;;;16.70;99.90;;;;;;5077829;28;19958;-79
2022/10/17 01:21:56;;;;;;;;;;;16.80;99.90;;;;;;5077539;28;19958;-77
2022/10/17 01:24:24;;;;;;;;;;;16.90;99.90;;;;;;5077706;28;19912;-77
2022/10/17 01:26:58;;;;;;;;;;;16.90;99.90;;;;;;5077690;28;19913;-78
2022/10/17 01:29:42;;;;;;;;;;;16.80;99.90;;;;;;5077982;28;19995;-77
2022/10/17 01:32:13;;;;;;;;;;;16.90;99.90;;;;;;5077794;28;19915;-79
2022/10/17 01:35:00;;;;;;;;;;;16.90;99.90;;;;;;5077378;28;19913;-79
2022/10/17 01:37:26;;;;;;;;;;;16.90;99.90;;;;;;5077343;28;19908;-79
2022/10/17 01:39:54;;;;;;;;;;;16.90;99.90;;;;;;5077384;28;19935;-78
2022/10/17 01:42:19;;;;;;;;;;;16.90;99.90;;;;;;5077567;28;19908;-77
2022/10/17 01:45:01;;;;;;;;;;;16.90;99.90;;;;;;5077439;28;19912;-77
2022/10/17 01:47:28;;;;;;;;;;;16.90;99.90;;;;;;5077907;28;19957;-79
2022/10/17 01:49:56;;;;;;;;;;;16.80;99.90;;;;;;5077068;28;19920;-77
2022/10/17 01:52:25;;;;;;;;;;;16.80;99.90;;;;;;5077378;28;19996;-79
2022/10/17 01:55:02;;;;;;;;;;;16.90;99.90;;;;;;5077338;28;19999;-78
2022/10/17 01:57:36;;;;;;;;;;;16.90;99.90;;;;;;5077663;28;19957;-79
2022/10/17 02:00:05;;;;;;;;;;;16.80;99.90;;;;;;5077106;28;20365;-77
2022/10/17 02:02:31;;;;;;;;;;;16.80;99.90;;;;;;5076674;28;20022;-79
2022/10/17 02:04:56;;;;;;;;;;;16.80;99.90;;;;;;5076989;28;19909;-78
2022/10/17 02:07:22;;;;;;;;;;;16.80;99.90;;;;;;5076860;28;19915;-78
2022/10/17 02:09:48;;;;;;;;;;;16.80;99.90;;;;;;5075946;28;20418;-76
2022/10/17 02:12:19;;;;;;;;;;;16.90;99.90;;;;;;5076718;28;19908;-79
2022/10/17 02:14:48;;;;;;;;;;;16.90;99.90;;;;;;5076686;28;20364;-77
2022/10/17 02:17:29;;;;;;;;;;;16.90;99.90;;;;;;5076657;28;19912;-76
2022/10/17 02:20:06;;;;;;;;;;;16.90;99.90;;;;;;5076461;28;19908;-76
2022/10/17 02:22:51;;;;;;;;;;;17.00;99.90;;;;;;5076571;28;19912;-78
2022/10/17 02:25:28;;;;;;;;;;;16.90;99.90;;;;;;5076230;28;19909;-78
2022/10/17 02:28:05;;;;;;;;;;;16.90;99.90;;;;;;5076491;28;19913;-79
2022/10/17 02:30:49;;;;;;;;;;;17.00;99.90;;;;;;5074707;28;19913;-78
2022/10/17 02:33:17;;;;;;;;;;;17.00;99.90;;;;;;5076398;28;19974;-78
2022/10/17 02:35:46;;;;;;;;;;;17.00;99.90;;;;;;5076340;28;19944;-76
2022/10/17 02:38:12;;;;;;;;;;;17.00;99.90;;;;;;5076385;28;19917;-79
2022/10/17 02:40:39;;;;;;;;;;;16.90;99.90;;;;;;5076223;28;20347;-78
2022/10/17 02:43:05;;;;;;;;;;;16.90;99.90;;;;;;5076080;28;19957;-77
2022/10/17 02:45:34;;;;;;;;;;;17.00;99.90;;;;;;5076262;28;19912;-76
2022/10/17 02:48:15;;;;;;;;;;;17.00;99.90;;;;;;5076732;28;19915;-78
2022/10/17 02:50:52;;;;;;;;;;;17.00;99.90;;;;;;5075689;28;19927;-77
2022/10/17 02:53:29;;;;;;;;;;;17.00;99.90;;;;;;5076241;28;19954;-77
2022/10/17 02:56:00;;;;;;;;;;;16.90;99.90;;;;;;5075902;28;19912;-78
2022/10/17 02:58:29;;;;;;;;;;;16.90;99.90;;;;;;5076073;28;19909;-79
2022/10/17 03:00:55;;;;;;;;;;;17.00;99.90;;;;;;5075804;28;19962;-79
2022/10/17 03:03:28;;;;;;;;;;;16.90;99.90;;;;;;5075636;28;19955;-76
2022/10/17 03:05:54;;;;;;;;;;;17.00;99.90;;;;;;5075663;28;19914;-77
2022/10/17 03:08:20;;;;;;;;;;;16.90;99.90;;;;;;5075493;28;19908;-79
2022/10/17 03:10:46;;;;;;;;;;;16.90;99.90;;;;;;5075531;28;19909;-78
2022/10/17 03:13:11;;;;;;;;;;;16.80;99.90;;;;;;5075296;28;19958;-79
2022/10/17 03:15:37;;;;;;;;;;;16.70;99.90;;;;;;5075451;28;19920;-77
2022/10/17 03:18:03;;;;;;;;;;;16.70;99.90;;;;;;5075228;28;19915;-78
2022/10/17 03:20:28;;;;;;;;;;;16.70;99.90;;;;;;5075127;28;19908;-76
2022/10/17 03:22:54;;;;;;;;;;;16.70;99.90;;;;;;5075143;28;20277;-78
2022/10/17 03:25:19;;;;;;;;;;;16.70;99.90;;;;;;5075410;28;19947;-77
2022/10/17 03:27:45;;;;;;;;;;;16.70;99.90;;;;;;5074903;28;19919;-79
2022/10/17 03:30:11;;;;;;;;;;;16.70;99.90;;;;;;5075158;28;19909;-77
2022/10/17 03:32:36;;;;;;;;;;;16.70;99.90;;;;;;5075010;28;20341;-77
2022/10/17 03:35:02;;;;;;;;;;;16.70;99.90;;;;;;5073576;28;20415;-79
2022/10/17 03:37:28;;;;;;;;;;;16.70;99.90;;;;;;5075163;28;19908;-78
2022/10/17 03:39:53;;;;;;;;;;;16.70;99.90;;;;;;5074842;28;19944;-78
2022/10/17 03:42:19;;;;;;;;;;;16.70;99.90;;;;;;5074569;28;20027;-76
2022/10/17 03:44:44;;;;;;;;;;;16.70;99.90;;;;;;5074720;28;19912;-78
2022/10/17 03:47:10;;;;;;;;;;;16.70;99.90;;;;;;5074656;28;20415;-79
2022/10/17 03:49:36;;;;;;;;;;;16.70;99.90;;;;;;5073551;28;20300;-79
2022/10/17 03:52:01;;;;;;;;;;;16.80;99.90;;;;;;5074587;28;19995;-77
2022/10/17 03:54:27;;;;;;;;;;;16.70;99.90;;;;;;5073201;28;19909;-79
2022/10/17 03:56:52;;;;;;;;;;;16.70;99.90;;;;;;5074382;28;20023;-78
2022/10/17 03:59:18;;;;;;;;;;;16.70;99.90;;;;;;5074551;28;19951;-78
2022/10/17 04:01:43;;;;;;;;;;;16.60;99.90;;;;;;5074526;28;19935;-78
2022/10/17 04:04:09;;;;;;;;;;;16.60;99.90;;;;;;5074168;28;19913;-78
2022/10/17 04:06:35;;;;;;;;;;;16.60;99.90;;;;;;5074330;28;19994;-79
2022/10/17 04:09:01;;;;;;;;;;;16.40;99.90;;;;;;5074155;28;19950;-77
2022/10/17 04:11:26;;;;;;;;;;;16.40;99.90;;;;;;5072782;28;20001;-77
2022/10/17 04:13:53;;;;;;;;;;;16.30;99.90;;;;;;5074156;28;19995;-79
2022/10/17 04:16:19;;;;;;;;;;;16.30;99.90;;;;;;5072685;28;19918;-77
2022/10/17 04:18:44;;;;;;;;;;;16.30;99.90;;;;;;5073919;28;20021;-77
2022/10/17 04:21:11;;;;;;;;;;;16.20;99.90;;;;;;5074043;28;19913;-78
2022/10/17 04:23:37;;;;;;;;;;;16.10;99.90;;;;;;5072539;28;19917;-77
2022/10/17 04:26:03;;;;;;;;;;;16.00;99.90;;;;;;5073911;28;20269;-79
2022/10/17 04:28:29;;;;;;;;;;;16.00;99.90;;;;;;5073816;28;19909;-76
2022/10/17 04:30:58;;;;;;;;;;;16.00;99.90;;;;;;5073833;28;20343;-77
2022/10/17 04:33:24;;;;;;;;;;;16.00;99.90;;;;;;5073648;28;19909;-78
2022/10/17 04:36:00;;;;;;;;;;;16.00;99.90;;;;;;5073781;28;20323;-76
2022/10/17 04:38:26;;;;;;;;;;;16.00;99.90;;;;;;5073755;28;19971;-79
2022/10/17 04:40:51;;;;;;;;;;;15.90;99.90;;;;;;5073747;28;19908;-78
2022/10/17 04:43:17;;;;;;;;;;;15.90;99.90;;;;;;5073606;28;20269;-78
2022/10/17 04:45:43;;;;;;;;;;;15.80;99.90;;;;;;5072300;28;20342;-77
2022/10/17 04:48:08;;;;;;;;;;;15.80;99.90;;;;;;5074234;28;20377;-77
2022/10/17 04:50:34;;;;;;;;;;;15.80;99.90;;;;;;5073178;28;19926;-77
2022/10/17 04:52:59;;;;;;;;;;;15.80;99.90;;;;;;5073610;28;19908;-78
2022/10/17 04:55:25;;;;;;;;;;;15.90;99.90;;;;;;5073600;28;19912;-79
2022/10/17 04:57:50;;;;;;;;;;;15.80;99.90;;;;;;5073475;28;19960;-77
2022/10/17 05:00:16;;;;;;;;;;;15.80;99.90;;;;;;5073466;28;19915;-78
2022/10/17 05:02:42;;;;;;;;;;;15.90;99.90;;;;;;5072082;28;19913;-76
2022/10/17 05:05:08;;;;;;;;;;;15.90;99.90;;;;;;5073377;28;19909;-78
2022/10/17 05:07:33;;;;;;;;;;;16.00;99.90;;;;;;5072083;28;19909;-76
2022/10/17 05:09:59;;;;;;;;;;;16.00;99.90;;;;;;5073608;28;19944;-79
2022/10/17 05:12:24;;;;;;;;;;;16.00;99.90;;;;;;5073332;28;19970;-76
2022/10/17 05:14:50;;;;;;;;;;;16.00;99.90;;;;;;5073979;28;19939;-76
2022/10/17 05:17:16;;;;;;;;;;;16.00;99.90;;;;;;5073930;28;19915;-78
2022/10/17 05:19:41;;;;;;;;;;;16.00;99.90;;;;;;5073227;28;19947;-77
2022/10/17 05:22:07;;;;;;;;;;;16.10;99.90;;;;;;5073232;28;19950;-77
2022/10/17 05:24:32;;;;;;;;;;;16.00;99.90;;;;;;5071843;28;19912;-76
2022/10/17 05:26:58;;;;;;;;;;;16.00;99.90;;;;;;5073571;28;19908;-77
2022/10/17 05:29:24;;;;;;;;;;;16.00;99.90;;;;;;5073301;28;20321;-75
2022/10/17 05:31:49;;;;;;;;;;;15.90;99.90;;;;;;5073216;28;19932;-76
2022/10/17 05:34:15;;;;;;;;;;;15.90;99.90;;;;;;5073150;28;20384;-78
2022/10/17 05:36:40;;;;;;;;;;;15.90;99.90;;;;;;5071811;28;19915;-77
2022/10/17 05:39:07;;;;;;;;;;;15.90;99.90;;;;;;5073467;28;20395;-76
2022/10/17 05:41:33;;;;;;;;;;;16.00;99.90;;;;;;5073197;28;20382;-77
2022/10/17 05:43:58;;;;;;;;;;;16.00;99.90;;;;;;5073224;28;19926;-77
2022/10/17 05:46:24;;;;;;;;;;;15.90;99.90;;;;;;5076544;28;19908;-76
2022/10/17 05:48:50;;;;;;;;;;;15.90;99.90;;;;;;5077378;28;20365;-79
2022/10/17 05:51:15;;;;;;;;;;;16.00;99.90;;;;;;5077000;28;19916;-76
2022/10/17 05:53:41;;;;;;;;;;;16.00;99.90;;;;;;5075227;28;19908;-78
2022/10/17 05:56:09;;;;;;;;;;;16.10;99.90;;;;;;5076496;28;19940;-76
2022/10/17 05:58:34;;;;;;;;;;;16.00;99.90;;;;;;5076441;28;19916;-77
2022/10/17 06:01:03;;;;;;;;;;;16.10;99.90;;;;;;5076477;28;20258;-77
2022/10/17 06:03:29;;;;;;;;;;;16.10;99.90;;;;;;5076393;28;19961;-79
2022/10/17 06:05:55;;;;;;;;;;;16.10;99.90;;;;;;5076416;28;19912;-79
2022/10/17 06:08:21;;;;;;;;;;;16.00;99.90;;;;;;5076585;28;20365;-78
2022/10/17 06:10:47;;;;;;;;;;;16.00;99.90;;;;;;5076321;28;19908;-77
2022/10/17 06:13:13;;;;;;;;;;;16.10;99.90;;;;;;5076233;28;20289;-78
2022/10/17 06:15:39;;;;;;;;;;;16.20;99.90;;;;;;5076208;28;19916;-77
2022/10/17 06:18:04;;;;;;;;;;;16.20;99.90;;;;;;5076206;28;19928;-77
2022/10/17 06:20:30;;;;;;;;;;;16.10;99.90;;;;;;5076159;28;20270;-78
2022/10/17 06:22:56;;;;;;;;;;;16.20;99.90;;;;;;5076067;28;19918;-79
2022/10/17 06:25:21;;;;;;;;;;;16.20;99.90;;;;;;5076379;28;20003;-76
2022/10/17 06:27:47;;;;;;;;;;;16.20;99.90;;;;;;5076111;28;19934;-77
2022/10/17 06:30:13;;;;;;;;;;;16.20;99.90;;;;;;5076017;28;19912;-79
2022/10/17 06:32:38;;;;;;;;;;;16.20;99.90;;;;;;5076148;28;20376;-77
2022/10/17 06:35:04;;;;;;;;;;;16.10;99.90;;;;;;5075903;28;20288;-77
2022/10/17 06:37:30;;;;;;;;;;;16.10;99.90;;;;;;5075820;28;19944;-78
2022/10/17 06:39:56;;;;;;;;;;;16.00;99.90;;;;;;5075784;28;19908;-77
2022/10/17 06:42:21;;;;;;;;;;;16.00;99.90;;;;;;5075952;28;19932;-77
2022/10/17 06:44:47;;;;;;;;;;;16.10;99.90;;;;;;5075661;28;19909;-79
2022/10/17 06:47:13;;;;;;;;;;;16.10;99.90;;;;;;5075656;28;19913;-79
2022/10/17 06:49:38;;;;;;;;;;;16.10;99.90;;;;;;5074681;28;19995;-78
2022/10/17 06:52:04;;;;;;;;;;;16.00;99.90;;;;;;5075525;28;19913;-79
2022/10/17 06:54:29;;;;;;;;;;;16.00;99.90;;;;;;5075538;28;19914;-78
2022/10/17 06:56:55;;;;;;;;;;;16.10;99.90;;;;;;5075143;28;19946;-78
2022/10/17 06:59:21;;;;;;;;;;;16.10;99.90;;;;;;5075443;28;19908;-77
2022/10/17 07:04:30;;;;;;;;;;;16.10;99.90;;;;;;5075193;28;19920;-78
2022/10/17 07:06:56;;;;;;;;;;;16.10;99.90;;;;;;5075195;28;19913;-76
2022/10/17 07:09:23;;;;;;;;;;;16.20;99.90;;;;;;5075221;28;19916;-78
2022/10/17 07:11:48;;;;;;;;;;;16.30;99.90;;;;;;5075211;28;19908;-79
2022/10/17 07:14:14;;;;;;;;;;;16.20;99.90;;;;;;5075105;28;19908;-77
2022/10/17 07:16:39;;;;;;;;;;;16.20;99.90;;;;;;5075055;28;19916;-79
2022/10/17 07:19:05;;;;;;;;;;;16.30;99.90;;;;;;5075028;28;19961;-78
2022/10/17 07:21:31;;;;;;;;;;;16.30;99.90;;;;;;5074992;28;20365;-77
2022/10/17 07:23:57;;;;;;;;;;;16.40;99.90;;;;;;5074868;28;19913;-76
2022/10/17 07:26:23;;;;;;;;;;;16.50;99.90;;;;;;5075256;28;19908;-79
2022/10/17 07:28:50;;;;;;;;;;;16.50;99.90;;;;;;5074980;28;19931;-76
2022/10/17 07:31:17;;;;;;;;;;;16.50;99.90;;;;;;5074871;28;19940;-77
2022/10/17 07:33:43;;;;;;;;;;;16.60;99.90;;;;;;5074730;28;19908;-75
2022/10/17 07:36:09;;;;;;;;;;;16.70;99.90;;;;;;5074680;28;19916;-77
2022/10/17 07:38:35;;;;;;;;;;;16.70;99.90;;;;;;5074914;28;19958;-76
2022/10/17 07:41:01;;;;;;;;;;;16.70;99.90;;;;;;5074528;28;19908;-77
2022/10/17 07:43:27;;;;;;;;;;;16.70;99.90;;;;;;5074518;28;19912;-76
2022/10/17 07:45:53;;;;;;;;;;;16.80;99.90;;;;;;5074433;28;20017;-78
2022/10/17 07:48:20;;;;;;;;;;;16.70;99.90;;;;;;5074968;28;20258;-76
2022/10/17 07:50:45;;;;;;;;;;;16.90;99.90;;;;;;5074001;28;19970;-79
2022/10/17 07:53:11;;;;;;;;;;;17.00;99.90;;;;;;5074286;28;20310;-77
2022/10/17 07:55:37;;;;;;;;;;;16.90;99.90;;;;;;5074291;28;19961;-79
2022/10/17 07:58:03;;;;;;;;;;;16.90;99.90;;;;;;5074559;28;19950;-77
2022/10/17 08:00:28;;;;;;;;;;;17.00;99.90;;;;;;5074361;28;19954;-76
2022/10/17 08:02:54;;;;;;;;;;;17.10;99.90;;;;;;5074243;28;20380;-79
2022/10/17 08:05:19;;;;;;;;;;;17.10;99.90;;;;;;5072834;28;19908;-77
2022/10/17 08:07:45;;;;;;;;;;;17.00;99.90;;;;;;5073551;28;19919;-79
2022/10/17 08:10:12;;;;;;;;;;;17.00;99.90;;;;;;5074068;28;19908;-79
2022/10/17 08:12:37;;;;;;;;;;;16.90;99.90;;;;;;5074296;28;19909;-75
2022/10/17 08:15:03;;;;;;;;;;;16.90;99.90;;;;;;5073901;28;19916;-79
2022/10/17 08:17:29;;;;;;;;;;;16.80;99.90;;;;;;5074130;28;20260;-79
2022/10/17 08:19:54;;;;;;;;;;;16.90;99.90;;;;;;5073966;28;19912;-76
2022/10/17 08:22:20;;;;;;;;;;;16.90;99.90;;;;;;5073975;28;19908;-75
2022/10/17 08:24:46;;;;;;;;;;;16.80;99.90;;;;;;5073913;28;20408;-79
2022/10/17 08:27:12;;;;;;;;;;;16.90;99.90;;;;;;5073665;28;19908;-79
2022/10/17 08:29:38;;;;;;;;;;;17.00;99.90;;;;;;5073957;28;19915;-77
2022/10/17 08:32:05;;;;;;;;;;;17.10;99.90;;;;;;5072527;28;19908;-78
2022/10/17 08:34:30;;;;;;;;;;;16.90;99.90;;;;;;5073730;28;19949;-78
2022/10/17 08:36:56;;;;;;;;;;;17.00;99.90;;;;;;5073842;28;19924;-78
2022/10/17 08:39:21;;;;;;;;;;;17.10;99.90;;;;;;5073900;28;20365;-78
2022/10/17 08:42:05;;;;;;;;;;;17.20;99.90;;;;;;5073621;28;19916;-77
2022/10/17 08:44:42;;;;;;;;;;;17.30;99.90;;;;;;5073488;28;19974;-79
2022/10/17 08:47:11;;;;;;;;;;;17.30;99.90;;;;;;5074017;28;19915;-78
2022/10/17 08:49:39;;;;;;;;;;;17.40;99.90;;;;;;5074053;28;19920;-80
2022/10/17 08:52:10;;;;;;;;;;;17.50;99.90;;;;;;5073489;28;20011;-76
2022/10/17 08:54:40;;;;;;;;;;;17.60;99.90;;;;;;5073791;28;19919;-77
2022/10/17 08:57:10;;;;;;;;;;;17.70;99.90;;;;;;5073476;28;20434;-79
2022/10/17 08:59:35;;;;;;;;;;;17.80;99.90;;;;;;5073609;28;19913;-76
2022/10/17 09:02:19;;;;;;;;;;;17.80;99.90;;;;;;5073491;28;19908;-78
2022/10/17 09:05:03;;;;;;;;;;;17.80;99.90;;;;;;5073401;28;20014;-79
2022/10/17 09:07:56;;;;;;;;;;;18.00;99.90;;;;;;5073714;28;20292;-78
2022/10/17 09:10:51;;;;;;;;;;;18.00;99.90;;;;;;5073537;28;19923;-78
2022/10/17 09:13:17;;;;;;;;;;;18.10;99.90;;;;;;5059878;28;19909;-77
2022/10/17 09:15:56;;;;;;;;;;;18.20;99.90;;;;;;5073442;28;19915;-77
2022/10/17 09:18:54;;;;;;;;;;;18.20;99.90;;;;;;5074248;28;19961;-80
2022/10/17 09:21:20;;;;;;;;;;;18.30;99.90;;;;;;5043337;28;19908;-79
2022/10/17 09:23:45;;;;;;;;;;;18.40;99.90;;;;;;5075956;28;19923;-79
2022/10/17 09:26:11;;;;;;;;;;;18.80;99.90;;;;;;5077324;28;19908;-79
2022/10/17 09:28:37;;;;;;;;;;;18.90;99.90;;;;;;5077169;28;20412;-78
2022/10/17 09:31:04;;;;;;;;;;;18.90;99.90;;;;;;5077090;28;19915;-78
2022/10/17 09:33:39;;;;;;;;;;;19.10;99.90;;;;;;5077074;28;19989;-78
2022/10/17 09:36:09;;;;;;;;;;;19.00;99.90;;;;;;5077151;28;19915;-79
2022/10/17 09:38:46;;;;;;;;;;;19.10;99.90;;;;;;5077282;28;19909;-80
2022/10/17 09:41:17;;;;;;;;;;;19.40;99.90;;;;;;5077375;28;19908;-77
2022/10/17 09:43:42;;;;;;;;;;;19.30;99.90;;;;;;5076788;28;19999;-77
2022/10/17 09:46:14;;;;;;;;;;;19.10;99.90;;;;;;5076752;28;20396;-80
2022/10/17 09:48:45;;;;;;;;;;;18.80;99.90;;;;;;5077140;28;19962;-80
2022/10/17 09:51:11;;;;;;;;;;;18.50;99.90;;;;;;5076837;28;20014;-79
2022/10/17 09:53:41;;;;;;;;;;;18.50;99.90;;;;;;5076693;28;19909;-75
2022/10/17 09:56:12;;;;;;;;;;;18.50;99.90;;;;;;5076902;28;20377;-79
2022/10/17 09:58:40;;;;;;;;;;;18.80;99.90;;;;;;5074642;28;20533;-78
2022/10/17 10:01:16;;;;;;;;;;;18.60;99.90;;;;;;5076486;28;19912;-78
2022/10/17 10:03:42;;;;;;;;;;;18.40;99.90;;;;;;5076413;28;19912;-79
2022/10/17 10:06:11;;;;;;;;;;;18.30;99.90;;;;;;5076516;28;19916;-79
2022/10/17 10:08:50;;;;;;;;;;;18.10;99.90;;;;;;5076408;28;19908;-79
2022/10/17 10:11:16;;;;;;;;;;;18.40;99.90;;;;;;5076863;28;19966;-78
2022/10/17 10:13:42;;;;;;;;;;;18.70;99.90;;;;;;5076352;28;20288;-76
2022/10/17 10:16:13;;;;;;;;;;;18.60;99.90;;;;;;5076578;28;19909;-79
2022/10/17 10:18:39;;;;;;;;;;;18.40;99.90;;;;;;5076292;28;19908;-79
2022/10/17 10:21:15;;;;;;;;;;;18.30;99.90;;;;;;5076240;28;19909;-78
2022/10/17 10:23:42;;;;;;;;;;;18.20;99.90;;;;;;5076492;28;19961;-77
2022/10/17 10:26:21;;;;;;;;;;;18.00;99.90;;;;;;5076156;28;19915;-77
2022/10/17 10:28:51;;;;;;;;;;;18.10;99.90;;;;;;5076185;28;19915;-79
2022/10/17 10:31:24;;;;;;;;;;;18.20;99.90;;;;;;5075516;28;19947;-80
2022/10/17 10:33:49;;;;;;;;;;;18.10;99.90;;;;;;5076202;28;19958;-79
2022/10/17 10:36:15;;;;;;;;;;;17.90;99.90;;;;;;5076057;28;19912;-78
2022/10/17 10:38:42;;;;;;;;;;;18.00;99.90;;;;;;5075969;28;19908;-79
2022/10/17 10:41:08;;;;;;;;;;;18.00;99.90;;;;;;5075792;28;19930;-77
2022/10/17 10:43:40;;;;;;;;;;;17.90;99.90;;;;;;5076077;28;19912;-78
2022/10/17 10:46:22;;;;;;;;;;;18.00;99.90;;;;;;5075720;28;19938;-78
2022/10/17 10:48:59;;;;;;;;;;;18.00;99.90;;;;;;5076007;28;19909;-79
2022/10/17 10:51:32;;;;;;;;;;;18.00;99.90;;;;;;5075868;28;19916;-79
2022/10/17 10:54:01;;;;;;;;;;;17.90;99.90;;;;;;5075738;28;19912;-77
2022/10/17 10:56:38;;;;;;;;;;;17.90;99.90;;;;;;5075534;28;20398;-77
2022/10/17 10:59:07;;;;;;;;;;;17.90;99.90;;;;;;5075707;28;19908;-77
2022/10/17 11:01:38;;;;;;;;;;;18.00;99.90;;;;;;5075465;28;19914;-79
2022/10/17 11:04:04;;;;;;;;;;;18.10;99.90;;;;;;5075334;28;19919;-80
2022/10/17 11:06:33;;;;;;;;;;;18.30;99.90;;;;;;5075532;28;19908;-77
2022/10/17 11:09:02;;;;;;;;;;;18.30;99.90;;;;;;5075587;28;19923;-78
2022/10/17 11:11:31;;;;;;;;;;;18.40;99.90;;;;;;5075324;28;19909;-77
2022/10/17 11:14:10;;;;;;;;;;;18.30;99.90;;;;;;5075233;28;19913;-79
2022/10/17 11:16:38;;;;;;;;;;;18.30;99.90;;;;;;5075369;28;19938;-79
2022/10/17 11:19:07;;;;;;;;;;;18.40;99.90;;;;;;5075246;28;19912;-77
2022/10/17 11:21:57;;;;;;;;;;;18.40;99.90;;;;;;5075044;28;19915;-77
2022/10/17 11:24:23;;;;;;;;;;;18.50;99.90;;;;;;5075145;28;19913;-79
2022/10/17 11:26:52;;;;;;;;;;;18.40;99.90;;;;;;5074926;28;19908;-77
2022/10/17 11:29:18;;;;;;;;;;;18.50;99.90;;;;;;5075160;28;19908;-80
2022/10/17 11:31:46;;;;;;;;;;;18.20;99.90;;;;;;5075096;28;19999;-78
2022/10/17 11:34:24;;;;;;;;;;;18.20;99.90;;;;;;5074853;28;19908;-79
2022/10/17 11:36:51;;;;;;;;;;;18.20;99.90;;;;;;5075293;28;19913;-79
2022/10/17 11:39:22;;;;;;;;;;;18.10;99.90;;;;;;5074721;28;19909;-80
2022/10/17 11:41:51;;;;;;;;;;;18.20;99.90;;;;;;5073780;28;19917;-77
2022/10/17 11:44:22;;;;;;;;;;;18.10;99.90;;;;;;5074504;28;19912;-79
2022/10/17 11:46:52;;;;;;;;;;;18.20;99.90;;;;;;5074532;28;19916;-76
2022/10/17 11:49:19;;;;;;;;;;;18.10;99.90;;;;;;5074930;28;19964;-79
2022/10/17 11:51:51;;;;;;;;;;;18.00;99.90;;;;;;5074497;28;20288;-77
2022/10/17 11:54:20;;;;;;;;;;;17.90;99.90;;;;;;5074333;28;19909;-77
2022/10/17 11:56:52;;;;;;;;;;;18.10;99.90;;;;;;5074773;28;19978;-79
2022/10/17 11:59:38;;;;;;;;;;;18.10;99.90;;;;;;5074451;28;19908;-80
2022/10/17 12:02:08;;;;;;;;;;;18.20;99.90;;;;;;5073879;28;20273;-78
2022/10/17 12:04:49;;;;;;;;;;;18.50;99.90;;;;;;5074690;28;19912;-78
2022/10/17 12:07:26;;;;;;;;;;;18.90;99.90;;;;;;5074803;28;19908;-79
2022/10/17 12:09:55;;;;;;;;;;;19.00;99.90;;;;;;5074200;28;20352;-79
2022/10/17 12:12:25;;;;;;;;;;;19.30;99.90;;;;;;5074123;28;19909;-76
2022/10/17 12:14:52;;;;;;;;;;;20.20;99.90;;;;;;5074258;28;20311;-78
2022/10/17 12:17:37;;;;;;;;;;;20.40;99.90;;;;;;5074058;28;20289;-77
2022/10/17 12:20:24;;;;;;;;;;;20.30;99.90;;;;;;5072486;28;20273;-77
2022/10/17 12:22:55;;;;;;;;;;;20.00;99.90;;;;;;5074177;28;20482;-78
2022/10/17 12:25:28;;;;;;;;;;;19.80;99.90;;;;;;5074280;28;19916;-77
2022/10/17 12:28:06;;;;;;;;;;;19.70;99.90;;;;;;5074202;28;20388;-78
2022/10/17 12:30:31;;;;;;;;;;;19.70;99.90;;;;;;5073872;28;19912;-78
2022/10/17 12:33:25;;;;;;;;;;;19.90;99.90;;;;;;5074057;28;19996;-77
2022/10/17 12:36:11;;;;;;;;;;;19.90;99.90;;;;;;5050875;28;19995;-79
2022/10/17 12:38:36;;;;;;;;;;;20.00;99.90;;;;;;5073736;28;19962;-77
2022/10/17 12:41:03;;;;;;;;;;;19.70;99.90;;;;;;5073726;28;19909;-77
2022/10/17 12:43:28;;;;;;;;;;;19.50;99.90;;;;;;5073824;28;19912;-79
2022/10/17 12:45:54;;;;;;;;;;;19.60;99.90;;;;;;5072367;28;19909;-78
2022/10/17 12:48:35;;;;;;;;;;;19.60;99.90;;;;;;5072407;28;19909;-77
2022/10/17 12:51:08;;;;;;;;;;;19.60;99.90;;;;;;5074166;28;19921;-80
2022/10/17 12:53:45;;;;;;;;;;;19.60;99.90;;;;;;5071979;28;20288;-78
2022/10/17 12:56:19;;;;;;;;;;;19.60;99.90;;;;;;5073620;28;19909;-78
2022/10/17 12:58:45;;;;;;;;;;;19.40;99.90;;;;;;5073593;28;20373;-78
2022/10/17 13:01:16;;;;;;;;;;;19.50;99.90;;;;;;5073534;28;19909;-78
2022/10/17 13:03:44;;;;;;;;;;;19.70;99.90;;;;;;5073834;28;20377;-80
2022/10/17 13:06:13;;;;;;;;;;;19.80;99.90;;;;;;5073740;28;19908;-80
2022/10/17 13:08:42;;;;;;;;;;;19.60;99.90;;;;;;5073561;28;19915;-78
2022/10/17 13:11:08;;;;;;;;;;;19.50;99.90;;;;;;5073409;28;19909;-78
2022/10/17 13:13:53;;;;;;;;;;;19.60;99.90;;;;;;5073404;28;19914;-80
2022/10/17 13:16:30;;;;;;;;;;;19.60;99.90;;;;;;5073599;28;20365;-80
2022/10/17 13:18:57;;;;;;;;;;;19.60;99.90;;;;;;5073349;28;19995;-79
2022/10/17 13:21:23;;;;;;;;;;;19.40;99.90;;;;;;5073330;28;19909;-80
2022/10/17 13:23:50;;;;;;;;;;;19.60;99.90;;;;;;5073253;28;19912;-78
2022/10/17 13:26:19;;;;;;;;;;;19.90;99.90;;;;;;5073323;28;19908;-80
2022/10/17 13:28:45;;;;;;;;;;;20.00;99.90;;;;;;5072001;28;20426;-79
2022/10/17 13:31:28;;;;;;;;;;;20.10;99.90;;;;;;5073227;28;19951;-80
2022/10/17 13:33:57;;;;;;;;;;;20.30;99.90;;;;;;5073427;28;20391;-77
2022/10/17 13:36:24;;;;;;;;;;;20.40;99.90;;;;;;5073193;28;19908;-78
2022/10/17 13:38:50;;;;;;;;;;;20.50;99.90;;;;;;5073265;28;19909;-79
2022/10/17 13:41:17;;;;;;;;;;;20.60;99.90;;;;;;5073177;28;19912;-80
2022/10/17 13:43:42;;;;;;;;;;;20.50;99.90;;;;;;5073091;28;19920;-80
2022/10/17 13:46:15;;;;;;;;;;;20.40;99.90;;;;;;5073135;28;19908;-77
2022/10/17 13:48:42;;;;;;;;;;;20.20;99.90;;;;;;5072981;28;19909;-79
2022/10/17 13:51:07;;;;;;;;;;;19.90;99.90;;;;;;5073685;28;19920;-79
2022/10/17 13:53:38;;;;;;;;;;;19.90;99.90;;;;;;5073100;28;20288;-78
2022/10/17 13:56:04;;;;;;;;;;;20.00;99.90;;;;;;5073267;28;20129;-79
2022/10/17 13:58:33;;;;;;;;;;;19.90;99.90;;;;;;5073016;28;20385;-80
2022/10/17 14:00:59;;;;;;;;;;;19.90;99.90;;;;;;5072941;28;20354;-80
2022/10/17 14:03:25;;;;;;;;;;;19.90;99.90;;;;;;5073024;28;19912;-79
2022/10/17 14:05:58;;;;;;;;;;;20.00;99.90;;;;;;5074395;28;19939;-79
2022/10/17 14:08:24;;;;;;;;;;;20.00;99.90;;;;;;5076592;28;20292;-78
2022/10/17 14:10:50;;;;;;;;;;;19.80;99.90;;;;;;5076476;28;19923;-77
2022/10/17 14:13:20;;;;;;;;;;;19.70;99.90;;;;;;5076431;28;19912;-80
2022/10/17 14:15:46;;;;;;;;;;;19.60;99.90;;;;;;5076544;28;19955;-77
2022/10/17 14:18:24;;;;;;;;;;;19.50;99.90;;;;;;5076360;28;19939;-78
2022/10/17 14:20:50;;;;;;;;;;;19.50;99.90;;;;;;5076474;28;19909;-77
2022/10/17 14:23:35;;;;;;;;;;;19.40;99.90;;;;;;5076206;28;20011;-77
2022/10/17 14:26:05;;;;;;;;;;;19.40;99.90;;;;;;5076365;28;19909;-77
2022/10/17 14:28:31;;;;;;;;;;;19.40;99.90;;;;;;5074904;28;19951;-80